createdAt,value
2018-04-28T00:00:40.079Z,18.10
2018-04-28T00:01:41.146Z,18.10
2018-04-28T00:02:42.226Z,18.10
2018-04-28T00:03:43.350Z,18.00
2018-04-28T00:04:44.438Z,18.10
2018-04-28T00:05:45.515Z,18.00
2018-04-28T00:06:46.602Z,18.00
2018-04-28T00:07:48.413Z,18.00
2018-04-28T00:08:49.495Z,18.00
2018-04-28T00:09:50.562Z,18.00
2018-04-28T00:10:51.650Z,17.90
2018-04-28T00:11:52.722Z,17.90
2018-04-28T00:12:53.806Z,18.10
2018-04-28T00:13:54.879Z,17.90
2018-04-28T00:14:55.951Z,17.90
2018-04-28T00:15:57.018Z,17.80
2018-04-28T00:16:58.088Z,17.80
2018-04-28T00:17:59.163Z,17.80
2018-04-28T00:19:01.759Z,17.80
2018-04-28T00:20:03.788Z,17.80
2018-04-28T00:21:05.602Z,17.70
2018-04-28T00:22:11.696Z,17.80
2018-04-28T00:23:13.519Z,17.70
2018-04-28T00:24:14.591Z,17.70
2018-04-28T00:25:15.668Z,17.70
2018-04-28T00:26:16.742Z,17.70
2018-04-28T00:27:26.580Z,17.70
2018-04-28T00:28:40.359Z,17.70
2018-04-28T00:29:41.432Z,17.70
2018-04-28T00:30:44.263Z,17.70
2018-04-28T00:33:09.856Z,17.60
2018-04-28T00:34:10.938Z,17.60
2018-04-28T00:35:12.011Z,17.60
2018-04-28T00:36:13.087Z,17.50
2018-04-28T00:37:16.007Z,17.50
2018-04-28T00:38:17.105Z,17.50
2018-04-28T00:39:18.170Z,17.50
2018-04-28T00:40:24.742Z,17.40
2018-04-28T00:41:26.623Z,17.40
2018-04-28T00:42:30.599Z,17.40
2018-04-28T00:43:31.674Z,17.40
2018-04-28T00:44:32.746Z,17.40
2018-04-28T00:45:33.818Z,17.40
2018-04-28T00:46:34.883Z,17.40
2018-04-28T00:47:35.966Z,17.40
2018-04-28T00:48:42.963Z,17.40
2018-04-28T00:49:52.857Z,17.40
2018-04-28T00:50:53.935Z,17.40
2018-04-28T00:51:55.024Z,17.30
2018-04-28T00:52:56.103Z,17.30
2018-04-28T00:54:06.095Z,17.30
2018-04-28T00:55:11.047Z,17.30
2018-04-28T00:56:14.026Z,17.20
2018-04-28T00:57:15.923Z,17.20
2018-04-28T00:59:50.867Z,17.30
2018-04-28T01:00:59.879Z,17.30
2018-04-28T01:02:03.410Z,17.30
2018-04-28T01:03:05.438Z,17.20
2018-04-28T01:04:07.522Z,17.20
2018-04-28T01:05:08.616Z,17.20
2018-04-28T01:06:09.703Z,17.20
2018-04-28T01:07:13.768Z,17.20
2018-04-28T01:08:14.838Z,17.20
2018-04-28T01:09:16.680Z,17.20
2018-04-28T01:10:17.747Z,17.20
2018-04-28T01:11:18.834Z,17.30
2018-04-28T01:12:19.912Z,17.10
2018-04-28T01:13:20.987Z,17.30
2018-04-28T01:14:41.942Z,17.30
2018-04-28T01:15:43.010Z,17.20
2018-04-28T01:16:45.984Z,17.20
2018-04-28T01:17:53.047Z,17.20
2018-04-28T01:18:54.851Z,17.20
2018-04-28T01:19:58.755Z,17.20
2018-04-28T01:21:00.758Z,17.20
2018-04-28T01:22:01.845Z,17.20
2018-04-28T01:24:49.847Z,17.20
2018-04-28T01:25:50.911Z,17.20
2018-04-28T01:27:10.866Z,17.20
2018-04-28T01:28:13.664Z,17.20
2018-04-28T01:29:14.730Z,17.30
2018-04-28T01:31:13.620Z,17.20
2018-04-28T01:32:14.701Z,17.20
2018-04-28T01:34:46.182Z,17.20
2018-04-28T01:37:33.714Z,17.20
2018-04-28T01:38:36.348Z,17.20
2018-04-28T01:39:38.399Z,17.20
2018-04-28T01:40:40.271Z,17.20
2018-04-28T01:41:53.568Z,17.20
2018-04-28T01:43:25.515Z,17.00
2018-04-28T01:44:35.790Z,17.10
2018-04-28T01:45:49.142Z,17.20
2018-04-28T01:46:51.814Z,17.10
2018-04-28T01:49:48.263Z,17.10
2018-04-28T01:50:59.723Z,17.10
2018-04-28T01:52:04.583Z,17.10
2018-04-28T01:53:05.646Z,17.10
2018-04-28T01:55:36.019Z,17.10
2018-04-28T01:56:40.039Z,17.10
2018-04-28T01:57:47.835Z,17.10
2018-04-28T01:58:49.821Z,17.10
2018-04-28T01:59:54.767Z,17.00
2018-04-28T02:02:54.063Z,17.00
2018-04-28T02:03:56.691Z,17.00
2018-04-28T02:04:57.766Z,17.00
2018-04-28T02:06:14.523Z,17.00
2018-04-28T02:07:15.613Z,17.00
2018-04-28T02:08:16.697Z,17.00
2018-04-28T02:09:20.554Z,17.00
2018-04-28T02:10:22.459Z,17.00
2018-04-28T02:11:27.363Z,17.00
2018-04-28T02:12:38.438Z,17.00
2018-04-28T02:13:44.329Z,17.00
2018-04-28T02:14:47.099Z,17.00
2018-04-28T02:15:48.179Z,17.00
2018-04-28T02:16:52.019Z,17.00
2018-04-28T02:17:55.700Z,17.00
2018-04-28T02:19:06.492Z,17.00
2018-04-28T02:20:08.454Z,17.00
2018-04-28T02:21:21.708Z,17.00
2018-04-28T02:22:32.782Z,17.00
2018-04-28T02:23:33.867Z,17.00
2018-04-28T02:24:45.752Z,17.00
2018-04-28T02:25:47.818Z,17.00
2018-04-28T02:26:49.735Z,17.00
2018-04-28T02:29:30.759Z,17.00
2018-04-28T02:30:37.566Z,17.00
2018-04-28T02:31:45.571Z,17.00
2018-04-28T02:32:49.463Z,17.00
2018-04-28T02:33:52.219Z,17.00
2018-04-28T02:34:53.301Z,17.00
2018-04-28T02:35:54.377Z,17.00
2018-04-28T02:38:27.688Z,17.00
2018-04-28T02:39:28.754Z,17.00
2018-04-28T02:40:31.724Z,17.00
2018-04-28T02:41:46.408Z,17.00
2018-04-28T02:42:52.328Z,17.00
2018-04-28T02:43:59.203Z,17.00
2018-04-28T02:45:01.118Z,17.00
2018-04-28T02:46:05.781Z,17.00
2018-04-28T02:47:07.699Z,16.90
2018-04-28T02:48:10.741Z,17.00
2018-04-28T02:49:11.821Z,17.00
2018-04-28T02:50:18.759Z,17.00
2018-04-28T02:51:20.626Z,17.00
2018-04-28T02:52:34.031Z,17.00
2018-04-28T02:53:43.658Z,17.00
2018-04-28T02:54:48.679Z,17.00
2018-04-28T02:55:52.695Z,16.90
2018-04-28T02:56:53.772Z,16.90
2018-04-28T02:58:00.622Z,17.00
2018-04-28T02:59:07.432Z,17.00
2018-04-28T03:00:14.368Z,17.00
2018-04-28T03:02:51.904Z,16.90
2018-04-28T03:03:53.954Z,16.90
2018-04-28T03:04:55.944Z,16.90
2018-04-28T03:06:07.972Z,16.90
2018-04-28T03:08:44.143Z,16.90
2018-04-28T03:09:45.131Z,16.90
2018-04-28T03:10:52.134Z,16.90
2018-04-28T03:11:57.099Z,16.90
2018-04-28T03:12:58.106Z,17.00
2018-04-28T03:13:59.868Z,16.90
2018-04-28T03:15:06.475Z,16.90
2018-04-28T03:16:08.292Z,16.90
2018-04-28T03:17:12.139Z,16.90
2018-04-28T03:18:13.142Z,16.90
2018-04-28T03:19:14.143Z,16.90
2018-04-28T03:20:15.148Z,16.90
2018-04-28T03:21:16.163Z,16.90
2018-04-28T03:22:18.115Z,17.00
2018-04-28T03:23:20.014Z,16.90
2018-04-28T03:24:22.845Z,16.90
2018-04-28T03:25:24.671Z,16.90
2018-04-28T03:26:26.491Z,17.00
2018-04-28T03:27:29.327Z,16.90
2018-04-28T03:28:31.078Z,16.90
2018-04-28T03:29:32.830Z,16.90
2018-04-28T03:30:35.390Z,16.90
2018-04-28T03:31:38.140Z,16.90
2018-04-28T03:32:40.917Z,16.90
2018-04-28T03:33:43.839Z,17.00
2018-04-28T03:34:44.866Z,17.00
2018-04-28T03:35:47.705Z,17.00
2018-04-28T03:36:49.690Z,17.00
2018-04-28T03:37:52.522Z,17.00
2018-04-28T03:38:57.344Z,17.00
2018-04-28T03:40:01.300Z,17.00
2018-04-28T03:41:09.306Z,17.00
2018-04-28T03:42:11.191Z,17.00
2018-04-28T03:43:15.008Z,17.00
2018-04-28T03:44:31.955Z,17.00
2018-04-28T03:45:35.538Z,17.00
2018-04-28T03:46:36.547Z,17.00
2018-04-28T03:47:54.322Z,17.00
2018-04-28T03:49:07.076Z,17.00
2018-04-28T03:50:08.907Z,17.00
2018-04-28T03:51:11.761Z,17.00
2018-04-28T03:52:20.586Z,17.00
2018-04-28T03:53:22.443Z,17.00
2018-04-28T03:54:25.306Z,17.00
2018-04-28T03:55:26.289Z,17.00
2018-04-28T03:56:29.139Z,17.00
2018-04-28T03:57:42.413Z,17.00
2018-04-28T03:58:55.716Z,17.00
2018-04-28T04:00:09.019Z,17.00
2018-04-28T04:01:22.386Z,17.00
2018-04-28T04:02:35.815Z,16.90
2018-04-28T04:05:10.697Z,16.90
2018-04-28T04:06:11.694Z,16.90
2018-04-28T04:07:26.281Z,16.80
2018-04-28T04:09:53.779Z,16.80
2018-04-28T04:10:56.602Z,16.80
2018-04-28T04:12:15.510Z,16.80
2018-04-28T04:15:08.835Z,16.70
2018-04-28T04:18:04.310Z,16.60
2018-04-28T04:19:26.468Z,16.60
2018-04-28T04:22:05.943Z,16.50
2018-04-28T04:24:50.359Z,16.50
2018-04-28T04:26:07.198Z,16.50
2018-04-28T04:28:38.315Z,16.40
2018-04-28T04:29:51.612Z,16.40
2018-04-28T04:31:00.800Z,16.50
2018-04-28T04:32:05.456Z,16.50
2018-04-28T04:33:30.368Z,16.50
2018-04-28T04:36:21.365Z,16.40
2018-04-28T04:37:40.033Z,16.40
2018-04-28T04:38:40.986Z,16.40
2018-04-28T04:39:44.859Z,16.40
2018-04-28T04:40:58.256Z,16.40
2018-04-28T04:42:08.410Z,16.30
2018-04-28T04:43:31.284Z,16.30
2018-04-28T04:45:55.103Z,16.30
2018-04-28T04:48:35.608Z,16.40
2018-04-28T04:51:02.083Z,16.40
2018-04-28T04:52:12.932Z,16.40
2018-04-28T04:53:15.594Z,16.40
2018-04-28T04:54:17.492Z,16.40
2018-04-28T04:56:58.511Z,16.40
2018-04-28T04:58:06.745Z,16.40
2018-04-28T04:59:16.756Z,16.40
2018-04-28T05:00:20.494Z,16.40
2018-04-28T05:01:27.680Z,16.40
2018-04-28T05:02:35.599Z,16.40
2018-04-28T05:05:23.050Z,16.40
2018-04-28T05:08:08.722Z,16.40
2018-04-28T05:09:22.008Z,16.40
2018-04-28T05:10:24.771Z,16.30
2018-04-28T05:11:33.806Z,16.30
2018-04-28T05:12:34.798Z,16.30
2018-04-28T05:13:46.629Z,16.30
2018-04-28T05:14:53.687Z,16.30
2018-04-28T05:16:01.987Z,16.30
2018-04-28T05:17:14.943Z,16.30
2018-04-28T05:18:28.174Z,16.30
2018-04-28T05:19:35.292Z,16.30
2018-04-28T05:20:54.078Z,16.30
2018-04-28T05:21:55.931Z,16.30
2018-04-28T05:22:59.591Z,16.30
2018-04-28T05:24:11.270Z,16.40
2018-04-28T05:25:23.322Z,16.30
2018-04-28T05:28:16.235Z,16.40
2018-04-28T05:29:32.188Z,16.40
2018-04-28T05:30:48.200Z,16.50
2018-04-28T05:32:06.367Z,16.50
2018-04-28T05:35:01.595Z,16.50
2018-04-28T05:36:09.679Z,16.50
2018-04-28T05:37:15.578Z,16.50
2018-04-28T05:38:26.703Z,16.60
2018-04-28T05:41:16.323Z,16.60
2018-04-28T05:42:29.692Z,16.60
2018-04-28T05:43:51.564Z,16.70
2018-04-28T05:45:04.922Z,16.70
2018-04-28T05:46:21.818Z,16.80
2018-04-28T05:47:45.470Z,16.80
2018-04-28T05:49:04.094Z,16.80
2018-04-28T05:50:13.850Z,16.90
2018-04-28T05:51:27.748Z,16.90
2018-04-28T05:52:35.843Z,16.90
2018-04-28T05:54:03.735Z,16.90
2018-04-28T05:55:31.443Z,16.90
2018-04-28T05:56:39.575Z,16.90
2018-04-28T05:57:47.670Z,17.00
2018-04-28T05:59:00.258Z,17.00
2018-04-28T06:01:56.428Z,17.00
2018-04-28T06:03:10.450Z,17.00
2018-04-28T06:04:24.459Z,17.10
2018-04-28T06:05:47.423Z,17.00
2018-04-28T06:08:17.031Z,17.10
2018-04-28T06:09:30.380Z,17.10
2018-04-28T06:10:58.322Z,17.00
2018-04-28T06:12:07.235Z,17.00
2018-04-28T06:13:24.004Z,16.90
2018-04-28T06:14:33.094Z,16.90
2018-04-28T06:15:59.190Z,16.90
2018-04-28T06:17:05.020Z,16.80
2018-04-28T06:18:27.078Z,16.80
2018-04-28T06:19:59.040Z,16.80
2018-04-28T06:21:00.203Z,16.80
2018-04-28T06:22:01.215Z,16.80
2018-04-28T06:23:02.979Z,16.90
2018-04-28T06:24:03.993Z,16.80
2018-04-28T06:25:05.015Z,16.90
2018-04-28T06:26:06.189Z,16.90
2018-04-28T06:27:07.024Z,16.90
2018-04-28T06:28:08.018Z,16.90
2018-04-28T06:29:09.014Z,16.90
2018-04-28T06:30:10.029Z,17.00
2018-04-28T06:31:11.776Z,16.90
2018-04-28T06:32:13.528Z,16.90
2018-04-28T06:33:15.266Z,16.90
2018-04-28T06:34:16.310Z,16.90
2018-04-28T06:35:17.315Z,16.90
2018-04-28T06:36:18.304Z,16.90
2018-04-28T06:37:19.312Z,16.90
2018-04-28T06:38:21.064Z,16.90
2018-04-28T06:39:22.073Z,16.90
2018-04-28T06:40:23.822Z,16.80
2018-04-28T06:41:25.574Z,16.80
2018-04-28T06:42:26.596Z,16.80
2018-04-28T06:43:27.604Z,16.80
2018-04-28T06:44:28.612Z,16.80
2018-04-28T06:45:29.645Z,16.80
2018-04-28T06:46:30.649Z,16.80
2018-04-28T06:47:31.655Z,16.90
2018-04-28T06:48:32.680Z,16.90
2018-04-28T06:49:33.686Z,16.90
2018-04-28T06:50:34.694Z,16.90
2018-04-28T06:51:35.709Z,16.80
2018-04-28T06:52:36.723Z,16.90
2018-04-28T06:53:37.747Z,16.80
2018-04-28T06:54:39.492Z,16.70
2018-04-28T06:55:40.531Z,16.60
2018-04-28T06:56:42.295Z,16.60
2018-04-28T06:57:43.298Z,16.60
2018-04-28T06:58:44.311Z,16.60
2018-04-28T06:59:45.331Z,16.60
2018-04-28T07:00:46.342Z,16.50
2018-04-28T07:01:47.346Z,16.70
2018-04-28T07:02:48.347Z,16.70
2018-04-28T07:03:49.365Z,16.80
2018-04-28T07:04:50.371Z,16.90
2018-04-28T07:05:51.387Z,16.80
2018-04-28T07:06:52.414Z,16.90
2018-04-28T07:07:53.431Z,16.90
2018-04-28T07:08:54.446Z,17.00
2018-04-28T07:09:55.445Z,17.00
2018-04-28T07:10:56.446Z,17.00
2018-04-28T07:11:57.458Z,17.10
2018-04-28T07:12:58.471Z,17.00
2018-04-28T07:13:59.491Z,17.10
2018-04-28T07:15:00.502Z,17.10
2018-04-28T07:16:01.532Z,17.20
2018-04-28T07:17:02.523Z,17.10
2018-04-28T07:18:03.531Z,17.10
2018-04-28T07:19:04.548Z,17.20
2018-04-28T07:20:05.550Z,17.20
2018-04-28T07:21:06.589Z,17.30
2018-04-28T07:22:07.568Z,17.30
2018-04-28T07:23:08.608Z,17.30
2018-04-28T07:24:09.619Z,17.30
2018-04-28T07:25:10.619Z,17.30
2018-04-28T07:26:12.366Z,17.30
2018-04-28T07:27:13.390Z,17.30
2018-04-28T07:28:14.375Z,17.30
2018-04-28T07:29:15.442Z,17.30
2018-04-28T07:30:16.411Z,17.30
2018-04-28T07:31:17.410Z,17.30
2018-04-28T07:32:18.415Z,17.30
2018-04-28T07:33:20.197Z,17.30
2018-04-28T07:34:21.230Z,17.30
2018-04-28T07:35:22.308Z,17.30
2018-04-28T07:36:23.282Z,17.30
2018-04-28T07:37:24.315Z,17.30
2018-04-28T07:38:26.078Z,17.30
2018-04-28T07:39:27.099Z,17.30
2018-04-28T07:40:28.094Z,17.30
2018-04-28T07:41:29.096Z,17.30
2018-04-28T07:42:30.957Z,17.30
2018-04-28T07:43:31.955Z,17.30
2018-04-28T07:44:33.701Z,17.30
2018-04-28T07:45:35.446Z,17.30
2018-04-28T07:46:37.202Z,17.30
2018-04-28T07:47:38.263Z,17.40
2018-04-28T07:48:39.224Z,17.30
2018-04-28T07:49:40.226Z,17.30
2018-04-28T07:50:41.226Z,17.30
2018-04-28T07:51:42.227Z,17.30
2018-04-28T07:52:43.254Z,17.40
2018-04-28T07:53:44.271Z,17.40
2018-04-28T07:54:45.290Z,17.50
2018-04-28T07:55:46.312Z,17.50
2018-04-28T07:56:47.322Z,17.50
2018-04-28T07:57:48.330Z,17.60
2018-04-28T07:58:49.361Z,17.50
2018-04-28T07:59:50.367Z,17.50
2018-04-28T08:00:51.377Z,17.50
2018-04-28T08:01:52.362Z,17.60
2018-04-28T08:02:54.102Z,17.70
2018-04-28T08:03:55.877Z,17.70
2018-04-28T08:04:57.614Z,17.80
2018-04-28T08:05:58.622Z,17.80
2018-04-28T08:06:59.659Z,17.80
2018-04-28T08:08:00.647Z,17.80
2018-04-28T08:09:01.667Z,17.90
2018-04-28T08:10:02.681Z,17.90
2018-04-28T08:11:03.687Z,17.90
2018-04-28T08:12:04.706Z,18.00
2018-04-28T08:13:05.700Z,18.00
2018-04-28T08:14:06.720Z,18.00
2018-04-28T08:15:07.729Z,18.00
2018-04-28T08:16:08.780Z,18.00
2018-04-28T08:17:09.779Z,18.00
2018-04-28T08:18:10.798Z,18.00
2018-04-28T08:19:12.542Z,18.00
2018-04-28T08:20:14.306Z,18.00
2018-04-28T08:21:15.334Z,18.10
2018-04-28T08:22:16.367Z,18.00
2018-04-28T08:23:17.373Z,18.00
2018-04-28T08:24:19.123Z,18.00
2018-04-28T08:25:20.247Z,18.00
2018-04-28T08:26:21.241Z,18.00
2018-04-28T08:27:22.238Z,18.00
2018-04-28T08:28:23.253Z,18.00
2018-04-28T08:29:24.278Z,18.10
2018-04-28T08:30:26.034Z,18.10
2018-04-28T08:31:27.053Z,18.10
2018-04-28T08:32:28.045Z,18.10
2018-04-28T08:33:29.067Z,18.10
2018-04-28T08:34:30.059Z,18.10
2018-04-28T08:35:31.074Z,18.10
2018-04-28T08:36:32.086Z,18.10
2018-04-28T08:37:33.122Z,18.10
2018-04-28T08:38:34.269Z,18.10
2018-04-28T08:39:36.023Z,18.10
2018-04-28T08:40:38.042Z,18.10
2018-04-28T08:41:40.107Z,18.10
2018-04-28T08:42:41.109Z,17.90
2018-04-28T08:43:42.094Z,18.00
2018-04-28T08:44:43.202Z,18.00
2018-04-28T08:45:44.408Z,18.00
2018-04-28T08:46:45.504Z,18.00
2018-04-28T08:47:46.519Z,17.90
2018-04-28T08:48:47.529Z,17.90
2018-04-28T08:49:48.520Z,17.90
2018-04-28T08:50:49.527Z,17.90
2018-04-28T08:51:51.282Z,17.90
2018-04-28T08:52:53.060Z,17.90
2018-04-28T08:53:54.250Z,17.90
2018-04-28T08:54:55.598Z,17.90
2018-04-28T08:55:57.346Z,17.90
2018-04-28T08:56:59.091Z,17.90
2018-04-28T08:58:00.850Z,17.90
2018-04-28T08:59:02.594Z,17.90
2018-04-28T09:00:15.844Z,17.90
2018-04-28T09:01:16.874Z,17.90
2018-04-28T09:02:17.895Z,17.90
2018-04-28T09:03:19.634Z,17.90
2018-04-28T09:04:20.635Z,17.90
2018-04-28T09:05:22.395Z,17.90
2018-04-28T09:06:23.411Z,17.90
2018-04-28T09:07:38.519Z,17.80
2018-04-28T09:08:39.530Z,17.90
2018-04-28T09:09:40.574Z,17.90
2018-04-28T09:10:41.631Z,17.90
2018-04-28T09:11:44.249Z,17.90
2018-04-28T09:12:45.322Z,17.80
2018-04-28T09:13:46.411Z,17.90
2018-04-28T09:14:47.481Z,17.90
2018-04-28T09:15:49.279Z,17.90
2018-04-28T09:16:50.342Z,17.90
2018-04-28T09:17:51.398Z,17.90
2018-04-28T09:18:52.487Z,17.90
2018-04-28T09:19:53.550Z,17.90
2018-04-28T09:20:55.945Z,17.90
2018-04-28T09:21:57.000Z,17.80
2018-04-28T09:22:58.062Z,17.80
2018-04-28T09:23:59.109Z,17.80
2018-04-28T09:25:00.224Z,17.80
2018-04-28T09:26:01.304Z,17.80
2018-04-28T09:27:02.384Z,17.80
2018-04-28T09:28:03.444Z,17.80
2018-04-28T09:29:05.249Z,17.80
2018-04-28T09:30:06.320Z,17.80
2018-04-28T09:31:07.415Z,17.80
2018-04-28T09:32:08.495Z,17.80
2018-04-28T09:33:09.568Z,17.90
2018-04-28T09:34:10.674Z,17.80
2018-04-28T09:35:11.736Z,17.80
2018-04-28T09:36:12.796Z,17.80
2018-04-28T09:37:14.611Z,17.80
2018-04-28T09:38:15.690Z,17.70
2018-04-28T09:39:16.739Z,17.80
2018-04-28T09:40:18.528Z,17.80
2018-04-28T09:41:19.607Z,17.80
2018-04-28T09:42:20.654Z,17.80
2018-04-28T09:43:21.718Z,17.80
2018-04-28T09:44:22.805Z,17.80
2018-04-28T09:45:24.619Z,17.80
2018-04-28T09:46:25.698Z,17.80
2018-04-28T09:47:27.499Z,17.80
2018-04-28T09:48:28.549Z,17.90
2018-04-28T09:49:29.597Z,17.90
2018-04-28T09:50:30.675Z,17.70
2018-04-28T09:51:31.748Z,17.70
2018-04-28T09:52:32.806Z,17.70
2018-04-28T09:53:34.596Z,17.70
2018-04-28T09:54:35.660Z,17.60
2018-04-28T09:55:36.714Z,17.70
2018-04-28T09:56:37.779Z,17.70
2018-04-28T09:57:38.906Z,17.60
2018-04-28T09:58:39.935Z,17.80
2018-04-28T09:59:40.995Z,17.70
2018-04-28T10:00:57.036Z,17.70
2018-04-28T10:01:58.648Z,17.70
2018-04-28T10:02:59.703Z,17.70
2018-04-28T10:04:00.770Z,17.80
2018-04-28T10:05:01.830Z,17.80
2018-04-28T10:06:02.957Z,17.80
2018-04-28T10:07:03.983Z,17.80
2018-04-28T10:08:05.036Z,17.80
2018-04-28T10:09:06.102Z,17.80
2018-04-28T10:10:07.163Z,17.90
2018-04-28T10:11:08.235Z,17.90
2018-04-28T10:12:10.087Z,18.00
2018-04-28T10:13:11.135Z,18.00
2018-04-28T10:14:12.949Z,18.10
2018-04-28T10:15:14.057Z,18.10
2018-04-28T10:16:15.154Z,18.10
2018-04-28T10:17:17.846Z,18.10
2018-04-28T10:18:19.715Z,18.10
2018-04-28T10:19:20.814Z,18.20
2018-04-28T10:20:23.071Z,18.10
2018-04-28T10:21:24.066Z,18.20
2018-04-28T10:22:25.123Z,18.20
2018-04-28T10:23:26.914Z,18.30
2018-04-28T10:24:27.962Z,18.20
2018-04-28T10:25:29.001Z,18.30
2018-04-28T10:26:30.079Z,18.30
2018-04-28T10:27:31.131Z,18.20
2018-04-28T10:28:32.175Z,18.30
2018-04-28T10:29:33.239Z,18.30
2018-04-28T10:30:34.307Z,18.30
2018-04-28T10:31:35.374Z,18.30
2018-04-28T10:32:36.426Z,18.30
2018-04-28T10:33:37.482Z,18.30
2018-04-28T10:34:38.529Z,18.30
2018-04-28T10:35:39.582Z,18.30
2018-04-28T10:36:40.635Z,18.40
2018-04-28T10:37:41.716Z,18.30
2018-04-28T10:38:43.499Z,18.30
2018-04-28T10:39:44.542Z,18.40
2018-04-28T10:40:45.602Z,18.30
2018-04-28T10:41:46.660Z,18.40
2018-04-28T10:42:47.711Z,18.40
2018-04-28T10:43:48.798Z,18.40
2018-04-28T10:44:49.870Z,18.40
2018-04-28T10:45:50.945Z,18.50
2018-04-28T10:46:52.012Z,18.50
2018-04-28T10:47:53.810Z,18.50
2018-04-28T10:48:54.870Z,18.50
2018-04-28T10:49:55.927Z,18.60
2018-04-28T10:50:57.708Z,18.60
2018-04-28T10:51:58.784Z,18.60
2018-04-28T10:52:59.850Z,18.70
2018-04-28T10:54:01.651Z,18.70
2018-04-28T10:55:02.719Z,18.70
2018-04-28T10:56:03.770Z,18.70
2018-04-28T10:57:04.844Z,18.80
2018-04-28T10:58:05.923Z,18.80
2018-04-28T10:59:07.735Z,18.80
2018-04-28T11:00:08.810Z,18.80
2018-04-28T11:01:09.861Z,18.80
2018-04-28T11:02:10.910Z,18.80
2018-04-28T11:03:17.847Z,18.80
2018-04-28T11:04:22.835Z,18.80
2018-04-28T11:05:23.892Z,18.90
2018-04-28T11:06:24.943Z,18.90
2018-04-28T11:07:26.015Z,18.90
2018-04-28T11:08:27.058Z,18.90
2018-04-28T11:09:28.118Z,19.00
2018-04-28T11:10:29.915Z,19.00
2018-04-28T11:11:30.994Z,19.00
2018-04-28T11:12:32.071Z,19.00
2018-04-28T11:13:33.178Z,19.00
2018-04-28T11:14:34.295Z,19.10
2018-04-28T11:15:35.339Z,19.10
2018-04-28T11:16:36.406Z,19.20
2018-04-28T11:17:37.447Z,19.20
2018-04-28T11:18:38.549Z,19.30
2018-04-28T11:19:39.686Z,19.30
2018-04-28T11:20:40.687Z,19.30
2018-04-28T11:21:42.485Z,19.30
2018-04-28T11:22:43.567Z,19.30
2018-04-28T11:23:44.647Z,19.30
2018-04-28T11:24:45.711Z,19.40
2018-04-28T11:25:46.864Z,19.40
2018-04-28T11:26:47.835Z,19.40
2018-04-28T11:27:48.902Z,19.40
2018-04-28T11:28:50.044Z,19.40
2018-04-28T11:29:51.105Z,19.50
2018-04-28T11:30:52.155Z,19.50
2018-04-28T11:31:53.222Z,19.50
2018-04-28T11:32:54.299Z,19.50
2018-04-28T11:33:56.067Z,19.50
2018-04-28T11:34:57.119Z,19.50
2018-04-28T11:35:58.175Z,19.60
2018-04-28T11:36:59.234Z,19.50
2018-04-28T11:38:00.286Z,19.50
2018-04-28T11:39:01.339Z,19.50
2018-04-28T11:40:02.398Z,19.50
2018-04-28T11:41:03.443Z,19.50
2018-04-28T11:42:04.499Z,19.60
2018-04-28T11:43:06.287Z,19.50
2018-04-28T11:44:07.336Z,19.50
2018-04-28T11:45:08.402Z,19.60
2018-04-28T11:46:09.463Z,19.50
2018-04-28T11:47:10.510Z,19.50
2018-04-28T11:48:11.548Z,19.60
2018-04-28T11:49:12.598Z,19.60
2018-04-28T11:50:13.667Z,19.70
2018-04-28T11:51:14.740Z,19.60
2018-04-28T11:52:15.806Z,19.70
2018-04-28T11:53:16.952Z,19.80
2018-04-28T11:54:17.949Z,19.80
2018-04-28T11:55:18.989Z,19.80
2018-04-28T11:56:20.047Z,19.70
2018-04-28T11:57:21.843Z,19.70
2018-04-28T11:58:22.894Z,19.70
2018-04-28T11:59:23.955Z,19.80
2018-04-28T12:00:25.027Z,19.80
2018-04-28T12:01:26.070Z,19.80
2018-04-28T12:02:27.124Z,19.80
2018-04-28T12:03:28.187Z,19.80
2018-04-28T12:04:29.968Z,19.90
2018-04-28T12:05:31.006Z,19.90
2018-04-28T12:06:32.076Z,19.90
2018-04-28T12:07:33.134Z,19.90
2018-04-28T12:08:34.949Z,20.00
2018-04-28T12:09:36.010Z,20.00
2018-04-28T12:10:37.063Z,20.10
2018-04-28T12:11:38.107Z,20.10
2018-04-28T12:12:39.178Z,20.10
2018-04-28T12:13:40.243Z,20.20
2018-04-28T12:14:41.319Z,20.10
2018-04-28T12:15:42.365Z,20.10
2018-04-28T12:16:43.399Z,20.20
2018-04-28T12:17:44.471Z,20.20
2018-04-28T12:18:46.256Z,20.30
2018-04-28T12:19:47.429Z,20.30
2018-04-28T12:20:48.412Z,20.30
2018-04-28T12:21:49.456Z,20.30
2018-04-28T12:22:50.507Z,20.30
2018-04-28T12:23:51.562Z,20.30
2018-04-28T12:24:52.607Z,20.30
2018-04-28T12:25:53.662Z,20.30
2018-04-28T12:26:54.724Z,20.30
2018-04-28T12:27:55.789Z,20.30
2018-04-28T12:28:56.838Z,20.30
2018-04-28T12:29:57.991Z,20.40
2018-04-28T12:30:58.957Z,20.40
2018-04-28T12:32:00.004Z,20.40
2018-04-28T12:33:01.062Z,20.50
2018-04-28T12:34:02.134Z,20.40
2018-04-28T12:35:03.183Z,20.50
2018-04-28T12:36:04.270Z,20.50
2018-04-28T12:37:06.040Z,20.70
2018-04-28T12:38:07.107Z,20.70
2018-04-28T12:39:08.148Z,20.80
2018-04-28T12:40:09.250Z,20.80
2018-04-28T12:41:10.303Z,20.90
2018-04-28T12:42:11.347Z,20.90
2018-04-28T12:43:12.407Z,20.90
2018-04-28T12:44:13.451Z,21.00
2018-04-28T12:45:14.499Z,21.00
2018-04-28T12:46:15.543Z,21.00
2018-04-28T12:47:16.596Z,21.10
2018-04-28T12:48:17.820Z,21.20
2018-04-28T12:49:19.643Z,21.30
2018-04-28T12:50:20.727Z,21.20
2018-04-28T12:51:22.539Z,21.20
2018-04-28T12:52:23.611Z,21.30
2018-04-28T12:53:25.422Z,21.30
2018-04-28T12:54:26.479Z,21.30
2018-04-28T12:55:28.290Z,21.40
2018-04-28T12:56:29.346Z,21.40
2018-04-28T12:57:30.439Z,21.40
2018-04-28T12:58:31.491Z,21.50
2018-04-28T12:59:32.539Z,21.60
2018-04-28T13:00:33.582Z,21.60
2018-04-28T13:01:34.643Z,21.70
2018-04-28T13:02:35.715Z,21.70
2018-04-28T13:03:36.859Z,21.80
2018-04-28T13:04:37.924Z,21.80
2018-04-28T13:05:39.088Z,21.80
2018-04-28T13:06:40.126Z,21.80
2018-04-28T13:07:41.242Z,21.80
2018-04-28T13:08:42.323Z,21.90
2018-04-28T13:09:43.375Z,21.90
2018-04-28T13:10:44.426Z,22.00
2018-04-28T13:11:46.226Z,22.10
2018-04-28T13:12:47.285Z,22.10
2018-04-28T13:13:48.337Z,22.30
2018-04-28T13:14:50.145Z,22.40
2018-04-28T13:15:51.190Z,22.40
2018-04-28T13:16:52.247Z,22.50
2018-04-28T13:17:54.055Z,22.60
2018-04-28T13:18:55.126Z,22.60
2018-04-28T13:19:56.175Z,22.60
2018-04-28T13:20:57.244Z,22.70
2018-04-28T13:21:58.316Z,22.80
2018-04-28T13:22:59.408Z,22.80
2018-04-28T13:24:00.476Z,22.90
2018-04-28T13:25:01.568Z,23.00
2018-04-28T13:26:02.635Z,23.10
2018-04-28T13:27:03.853Z,23.20
2018-04-28T13:28:04.778Z,23.20
2018-04-28T13:29:05.920Z,23.30
2018-04-28T13:30:06.914Z,23.30
2018-04-28T13:31:07.964Z,23.40
2018-04-28T13:32:09.037Z,23.40
2018-04-28T13:33:10.103Z,23.50
2018-04-28T13:34:11.156Z,23.60
2018-04-28T13:35:12.210Z,23.60
2018-04-28T13:36:13.287Z,23.60
2018-04-28T13:37:15.087Z,23.70
2018-04-28T13:38:16.143Z,23.90
2018-04-28T13:39:17.942Z,23.80
2018-04-28T13:40:19.091Z,23.80
2018-04-28T13:41:20.150Z,23.90
2018-04-28T13:42:21.215Z,23.90
2018-04-28T13:43:22.278Z,24.00
2018-04-28T13:44:23.346Z,24.00
2018-04-28T13:45:24.382Z,24.10
2018-04-28T13:46:25.438Z,24.10
2018-04-28T13:47:26.500Z,24.20
2018-04-28T13:48:27.557Z,24.30
2018-04-28T13:49:28.616Z,24.30
2018-04-28T13:50:30.408Z,24.50
2018-04-28T13:51:31.451Z,24.40
2018-04-28T13:52:32.503Z,24.50
2018-04-28T13:53:33.560Z,24.60
2018-04-28T13:54:35.355Z,24.60
2018-04-28T13:55:36.406Z,24.60
2018-04-28T13:56:37.459Z,24.60
2018-04-28T13:57:38.541Z,24.50
2018-04-28T13:58:39.612Z,24.50
2018-04-28T13:59:40.666Z,24.40
2018-04-28T14:00:41.718Z,24.40
2018-04-28T14:01:43.502Z,24.40
2018-04-28T14:02:44.542Z,24.40
2018-04-28T14:03:45.614Z,24.50
2018-04-28T14:04:46.671Z,24.50
2018-04-28T14:05:47.722Z,24.50
2018-04-28T14:06:48.771Z,24.50
2018-04-28T14:07:49.819Z,24.60
2018-04-28T14:08:50.891Z,24.60
2018-04-28T14:09:51.953Z,24.60
2018-04-28T14:10:53.033Z,24.60
2018-04-28T14:11:54.090Z,24.60
2018-04-28T14:12:55.148Z,24.50
2018-04-28T14:13:56.223Z,24.50
2018-04-28T14:14:57.300Z,24.50
2018-04-28T14:15:58.346Z,24.30
2018-04-28T14:17:00.171Z,24.20
2018-04-28T14:18:01.235Z,24.20
2018-04-28T14:19:02.311Z,24.30
2018-04-28T14:20:04.102Z,24.20
2018-04-28T14:21:05.184Z,24.20
2018-04-28T14:22:06.222Z,24.20
2018-04-28T14:23:08.022Z,24.20
2018-04-28T14:24:09.102Z,24.20
2018-04-28T14:25:10.189Z,24.20